sensor_id;sensor_type;location;lat;lon;timestamp;pressure;altitude;pressure_sealevel;temperature;humidity
61906;BME280;47863;55.766;37.672;2022-10-13T00:02:11;100357.47;;;7.65;74.57
61906;BME280;47863;55.766;37.672;2022-10-13T00:04:36;100363.81;;;7.64;74.68
61906;BME280;47863;55.766;37.672;2022-10-13T00:07:02;100362.50;;;7.59;74.73
61906;BME280;47863;55.766;37.672;2022-10-13T00:09:28;100375.53;;;7.62;75.08
61906;BME280;47863;55.766;37.672;2022-10-13T00:11:56;100381.28;;;7.57;74.76
61906;BME280;47863;55.766;37.672;2022-10-13T00:14:22;100377.41;;;7.50;74.58
61906;BME280;47863;55.766;37.672;2022-10-13T00:16:47;100371.03;;;7.41;76.47
61906;BME280;47863;55.766;37.672;2022-10-13T00:19:13;100370.91;;;7.43;77.05
61906;BME280;47863;55.766;37.672;2022-10-13T00:21:38;100388.13;;;7.39;76.86
61906;BME280;47863;55.766;37.672;2022-10-13T00:24:04;100386.66;;;7.34;76.67
61906;BME280;47863;55.766;37.672;2022-10-13T00:26:30;100380.16;;;7.27;77.08
61906;BME280;47863;55.766;37.672;2022-10-13T00:28:56;100342.34;;;7.01;76.12
61906;BME280;47863;55.766;37.672;2022-10-13T00:31:25;100377.28;;;7.19;77.14
61906;BME280;47863;55.766;37.672;2022-10-13T00:33:51;100393.13;;;7.21;77.92
61906;BME280;47863;55.766;37.672;2022-10-13T00:36:18;100383.69;;;7.17;77.80
61906;BME280;47863;55.766;37.672;2022-10-13T00:38:44;100369.09;;;7.00;77.45
61906;BME280;47863;55.766;37.672;2022-10-13T00:41:10;100373.69;;;6.98;77.85
61906;BME280;47863;55.766;37.672;2022-10-13T00:46:32;100380.25;;;6.82;77.36
61906;BME280;47863;55.766;37.672;2022-10-13T00:49:09;100401.44;;;6.84;78.53
61906;BME280;47863;55.766;37.672;2022-10-13T00:51:46;100404.09;;;6.72;78.76
61906;BME280;47863;55.766;37.672;2022-10-13T00:54:17;100401.19;;;6.64;78.34
61906;BME280;47863;55.766;37.672;2022-10-13T00:56:44;100402.88;;;6.54;78.92
61906;BME280;47863;55.766;37.672;2022-10-13T00:59:19;100408.81;;;6.46;79.00
61906;BME280;47863;55.766;37.672;2022-10-13T01:01:48;100388.44;;;6.23;78.94
61906;BME280;47863;55.766;37.672;2022-10-13T01:04:15;100393.78;;;6.23;79.61
61906;BME280;47863;55.766;37.672;2022-10-13T01:06:42;100409.84;;;6.21;80.81
61906;BME280;47863;55.766;37.672;2022-10-13T01:09:07;100404.78;;;6.18;80.97
61906;BME280;47863;55.766;37.672;2022-10-13T01:14:24;100405.59;;;6.07;80.97
61906;BME280;47863;55.766;37.672;2022-10-13T01:16:55;100405.84;;;6.04;81.34
61906;BME280;47863;55.766;37.672;2022-10-13T01:22:29;100411.25;;;6.03;82.98
61906;BME280;47863;55.766;37.672;2022-10-13T01:30:20;100412.41;;;6.34;81.58
61906;BME280;47863;55.766;37.672;2022-10-13T01:38:56;100420.19;;;6.71;79.33
61906;BME280;47863;55.766;37.672;2022-10-13T01:41:32;100410.97;;;6.75;79.58
61906;BME280;47863;55.766;37.672;2022-10-13T01:46:44;100411.81;;;6.87;78.93
61906;BME280;47863;55.766;37.672;2022-10-13T01:49:15;100405.03;;;6.83;79.72
61906;BME280;47863;55.766;37.672;2022-10-13T01:51:43;100409.75;;;6.90;79.12
61906;BME280;47863;55.766;37.672;2022-10-13T01:54:09;100392.72;;;6.82;78.99
61906;BME280;47863;55.766;37.672;2022-10-13T01:56:35;100404.22;;;6.93;79.11
61906;BME280;47863;55.766;37.672;2022-10-13T01:59:04;100402.38;;;6.94;78.13
61906;BME280;47863;55.766;37.672;2022-10-13T02:13:06;100416.91;;;7.01;77.87
61906;BME280;47863;55.766;37.672;2022-10-13T02:15:44;100424.41;;;7.07;77.65
61906;BME280;47863;55.766;37.672;2022-10-13T02:18:16;100426.09;;;7.08;77.74
61906;BME280;47863;55.766;37.672;2022-10-13T02:20:43;100419.91;;;7.08;77.66
61906;BME280;47863;55.766;37.672;2022-10-13T02:23:12;100422.59;;;7.08;77.21
61906;BME280;47863;55.766;37.672;2022-10-13T02:25:40;100431.91;;;7.13;77.36
61906;BME280;47863;55.766;37.672;2022-10-13T02:28:07;100417.03;;;7.11;78.16
61906;BME280;47863;55.766;37.672;2022-10-13T02:30:33;100426.56;;;7.13;77.65
61906;BME280;47863;55.766;37.672;2022-10-13T02:33:00;100429.59;;;7.20;77.59
61906;BME280;47863;55.766;37.672;2022-10-13T02:35:27;100432.13;;;7.22;77.52
61906;BME280;47863;55.766;37.672;2022-10-13T02:37:52;100428.03;;;7.18;77.39
61906;BME280;47863;55.766;37.672;2022-10-13T02:40:18;100421.25;;;7.13;76.38
61906;BME280;47863;55.766;37.672;2022-10-13T02:42:43;100416.16;;;7.10;77.37
61906;BME280;47863;55.766;37.672;2022-10-13T02:45:09;100423.66;;;7.17;76.73
61906;BME280;47863;55.766;37.672;2022-10-13T02:47:35;100427.53;;;7.12;76.44
61906;BME280;47863;55.766;37.672;2022-10-13T02:50:01;100424.63;;;7.04;76.91
61906;BME280;47863;55.766;37.672;2022-10-13T02:52:28;100434.06;;;7.08;77.25
61906;BME280;47863;55.766;37.672;2022-10-13T02:54:54;100436.28;;;7.03;78.01
61906;BME280;47863;55.766;37.672;2022-10-13T02:57:20;100431.19;;;7.00;78.25
61906;BME280;47863;55.766;37.672;2022-10-13T02:59:45;100438.94;;;7.03;78.07
61906;BME280;47863;55.766;37.672;2022-10-13T03:02:11;100442.56;;;7.02;78.12
61906;BME280;47863;55.766;37.672;2022-10-13T03:04:36;100425.84;;;6.89;77.51
61906;BME280;47863;55.766;37.672;2022-10-13T03:07:02;100436.41;;;6.90;78.12
61906;BME280;47863;55.766;37.672;2022-10-13T03:09:27;100443.44;;;6.91;78.37
61906;BME280;47863;55.766;37.672;2022-10-13T03:11:53;100441.09;;;6.87;78.17
61906;BME280;47863;55.766;37.672;2022-10-13T03:14:19;100425.28;;;6.74;78.03
61906;BME280;47863;55.766;37.672;2022-10-13T03:16:44;100450.56;;;6.80;78.10
61906;BME280;47863;55.766;37.672;2022-10-13T03:19:10;100435.53;;;6.67;78.18
61906;BME280;47863;55.766;37.672;2022-10-13T03:21:37;100439.06;;;6.68;79.06
61906;BME280;47863;55.766;37.672;2022-10-13T03:24:03;100445.72;;;6.62;79.26
61906;BME280;47863;55.766;37.672;2022-10-13T03:26:30;100451.28;;;6.70;79.45
61906;BME280;47863;55.766;37.672;2022-10-13T03:28:56;100435.19;;;6.61;79.04
61906;BME280;47863;55.766;37.672;2022-10-13T03:31:22;100439.78;;;6.59;78.76
61906;BME280;47863;55.766;37.672;2022-10-13T03:33:48;100448.38;;;6.62;79.53
61906;BME280;47863;55.766;37.672;2022-10-13T03:36:14;100441.94;;;6.53;79.37
61906;BME280;47863;55.766;37.672;2022-10-13T03:38:39;100449.09;;;6.53;79.94
61906;BME280;47863;55.766;37.672;2022-10-13T03:41:07;100444.84;;;6.50;80.15
61906;BME280;47863;55.766;37.672;2022-10-13T03:43:33;100450.91;;;6.52;79.80
61906;BME280;47863;55.766;37.672;2022-10-13T03:46:00;100458.53;;;6.57;79.60
61906;BME280;47863;55.766;37.672;2022-10-13T03:48:27;100450.19;;;6.50;79.74
61906;BME280;47863;55.766;37.672;2022-10-13T03:50:53;100449.34;;;6.50;80.31
61906;BME280;47863;55.766;37.672;2022-10-13T03:53:19;100455.53;;;6.62;79.51
61906;BME280;47863;55.766;37.672;2022-10-13T03:55:52;100463.03;;;6.68;79.69
61906;BME280;47863;55.766;37.672;2022-10-13T03:58:19;100454.06;;;6.69;79.86
61906;BME280;47863;55.766;37.672;2022-10-13T04:00:46;100463.28;;;6.76;79.53
61906;BME280;47863;55.766;37.672;2022-10-13T04:03:11;100470.28;;;6.77;79.51
61906;BME280;47863;55.766;37.672;2022-10-13T04:05:37;100472.59;;;6.82;79.49
61906;BME280;47863;55.766;37.672;2022-10-13T04:08:03;100471.63;;;6.83;80.11
61906;BME280;47863;55.766;37.672;2022-10-13T04:10:29;100475.84;;;6.97;79.82
61906;BME280;47863;55.766;37.672;2022-10-13T04:12:55;100467.38;;;7.03;78.76
61906;BME280;47863;55.766;37.672;2022-10-13T04:15:20;100470.53;;;7.08;79.24
61906;BME280;47863;55.766;37.672;2022-10-13T04:17:46;100479.88;;;7.13;78.45
61906;BME280;47863;55.766;37.672;2022-10-13T04:20:12;100488.31;;;7.19;78.66
61906;BME280;47863;55.766;37.672;2022-10-13T04:22:37;100473.19;;;7.19;78.52
61906;BME280;47863;55.766;37.672;2022-10-13T04:25:04;100477.31;;;7.23;77.76
61906;BME280;47863;55.766;37.672;2022-10-13T04:27:30;100480.44;;;7.28;78.64
61906;BME280;47863;55.766;37.672;2022-10-13T04:29:57;100467.50;;;7.24;77.57
61906;BME280;47863;55.766;37.672;2022-10-13T04:32:23;100467.25;;;7.27;77.20
61906;BME280;47863;55.766;37.672;2022-10-13T04:34:48;100486.38;;;7.43;76.63
61906;BME280;47863;55.766;37.672;2022-10-13T04:37:14;100496.75;;;7.46;76.48
61906;BME280;47863;55.766;37.672;2022-10-13T04:39:39;100490.47;;;7.47;76.43
61906;BME280;47863;55.766;37.672;2022-10-13T04:42:05;100490.09;;;7.52;76.32
61906;BME280;47863;55.766;37.672;2022-10-13T04:44:31;100491.81;;;7.53;76.11
61906;BME280;47863;55.766;37.672;2022-10-13T04:46:56;100495.91;;;7.57;76.36
61906;BME280;47863;55.766;37.672;2022-10-13T04:49:23;100501.72;;;7.62;76.04
61906;BME280;47863;55.766;37.672;2022-10-13T04:51:48;100509.47;;;7.65;75.79
61906;BME280;47863;55.766;37.672;2022-10-13T04:54:14;100503.75;;;7.70;75.46
61906;BME280;47863;55.766;37.672;2022-10-13T04:56:43;100504.22;;;7.75;75.92
61906;BME280;47863;55.766;37.672;2022-10-13T04:59:08;100493.44;;;7.77;75.36
61906;BME280;47863;55.766;37.672;2022-10-13T05:01:34;100503.47;;;7.84;75.26
61906;BME280;47863;55.766;37.672;2022-10-13T05:04:01;100506.47;;;7.91;75.62
61906;BME280;47863;55.766;37.672;2022-10-13T05:06:30;100504.16;;;7.98;75.66
61906;BME280;47863;55.766;37.672;2022-10-13T05:08:57;100493.03;;;7.92;75.01
61906;BME280;47863;55.766;37.672;2022-10-13T05:11:24;100501.72;;;8.06;74.73
61906;BME280;47863;55.766;37.672;2022-10-13T05:13:51;100510.88;;;8.13;74.31
61906;BME280;47863;55.766;37.672;2022-10-13T05:16:18;100518.25;;;8.21;74.14
61906;BME280;47863;55.766;37.672;2022-10-13T05:18:45;100522.47;;;8.23;73.90
61906;BME280;47863;55.766;37.672;2022-10-13T05:21:20;100509.00;;;8.25;74.52
61906;BME280;47863;55.766;37.672;2022-10-13T05:23:47;100516.25;;;8.34;73.46
61906;BME280;47863;55.766;37.672;2022-10-13T05:26:15;100512.13;;;8.41;73.46
61906;BME280;47863;55.766;37.672;2022-10-13T05:28:41;100502.91;;;8.34;72.74
61906;BME280;47863;55.766;37.672;2022-10-13T05:31:22;100516.97;;;8.47;73.15
61906;BME280;47863;55.766;37.672;2022-10-13T05:33:49;100514.00;;;8.50;72.45
61906;BME280;47863;55.766;37.672;2022-10-13T05:36:18;100521.50;;;8.57;72.51
61906;BME280;47863;55.766;37.672;2022-10-13T05:38:51;100519.16;;;8.63;71.82
61906;BME280;47863;55.766;37.672;2022-10-13T05:41:18;100519.00;;;8.65;71.18
61906;BME280;47863;55.766;37.672;2022-10-13T05:43:44;100514.78;;;8.62;71.93
61906;BME280;47863;55.766;37.672;2022-10-13T05:46:10;100511.88;;;8.65;71.94
61906;BME280;47863;55.766;37.672;2022-10-13T05:48:36;100516.16;;;8.78;71.14
61906;BME280;47863;55.766;37.672;2022-10-13T05:51:05;100497.59;;;8.76;72.07
61906;BME280;47863;55.766;37.672;2022-10-13T05:53:36;100518.53;;;9.02;74.33
61906;BME280;47863;55.766;37.672;2022-10-13T05:56:11;100509.88;;;9.19;74.55
61906;BME280;47863;55.766;37.672;2022-10-13T05:58:41;100514.91;;;9.43;70.01
61906;BME280;47863;55.766;37.672;2022-10-13T06:01:11;100518.75;;;9.60;69.26
61906;BME280;47863;55.766;37.672;2022-10-13T06:03:39;100517.22;;;9.77;72.35
61906;BME280;47863;55.766;37.672;2022-10-13T06:06:06;100513.44;;;9.80;67.41
61906;BME280;47863;55.766;37.672;2022-10-13T06:08:32;100511.34;;;9.73;70.99
61906;BME280;47863;55.766;37.672;2022-10-13T06:10:58;100516.81;;;9.72;71.52
61906;BME280;47863;55.766;37.672;2022-10-13T06:13:23;100519.63;;;9.80;71.65
61906;BME280;47863;55.766;37.672;2022-10-13T06:15:49;100525.84;;;10.00;70.01
61906;BME280;47863;55.766;37.672;2022-10-13T06:18:15;100517.97;;;10.28;67.51
61906;BME280;47863;55.766;37.672;2022-10-13T06:20:41;100514.47;;;10.57;66.58
61906;BME280;47863;55.766;37.672;2022-10-13T06:23:08;100529.22;;;10.90;64.82
61906;BME280;47863;55.766;37.672;2022-10-13T06:25:33;100526.84;;;11.24;63.25
61906;BME280;47863;55.766;37.672;2022-10-13T06:27:59;100526.28;;;11.76;63.16
61906;BME280;47863;55.766;37.672;2022-10-13T06:30:25;100528.91;;;12.58;60.95
61906;BME280;47863;55.766;37.672;2022-10-13T06:32:54;100524.97;;;13.22;58.24
61906;BME280;47863;55.766;37.672;2022-10-13T06:35:23;100518.28;;;13.61;56.48
61906;BME280;47863;55.766;37.672;2022-10-13T06:37:49;100518.16;;;13.71;54.82
61906;BME280;47863;55.766;37.672;2022-10-13T06:40:15;100528.72;;;13.72;54.75
61906;BME280;47863;55.766;37.672;2022-10-13T06:42:41;100534.56;;;13.51;56.97
61906;BME280;47863;55.766;37.672;2022-10-13T06:45:07;100540.47;;;13.28;56.63
61906;BME280;47863;55.766;37.672;2022-10-13T06:47:32;100530.53;;;12.95;55.92
61906;BME280;47863;55.766;37.672;2022-10-13T06:49:58;100540.50;;;12.76;57.56
61906;BME280;47863;55.766;37.672;2022-10-13T06:52:24;100537.94;;;12.48;58.35
61906;BME280;47863;55.766;37.672;2022-10-13T06:54:49;100534.88;;;12.25;58.71
61906;BME280;47863;55.766;37.672;2022-10-13T06:57:15;100532.66;;;12.03;59.81
61906;BME280;47863;55.766;37.672;2022-10-13T06:59:41;100533.44;;;11.85;59.16
61906;BME280;47863;55.766;37.672;2022-10-13T07:02:09;100555.66;;;11.78;60.28
61906;BME280;47863;55.766;37.672;2022-10-13T07:04:35;100543.03;;;11.60;61.43
61906;BME280;47863;55.766;37.672;2022-10-13T07:07:00;100550.16;;;11.51;60.74
61906;BME280;47863;55.766;37.672;2022-10-13T07:09:26;100559.22;;;11.41;61.05
61906;BME280;47863;55.766;37.672;2022-10-13T07:11:51;100543.34;;;11.29;61.10
61906;BME280;47863;55.766;37.672;2022-10-13T07:14:17;100557.44;;;11.31;61.17
61906;BME280;47863;55.766;37.672;2022-10-13T07:16:43;100548.16;;;11.26;61.87
61906;BME280;47863;55.766;37.672;2022-10-13T07:19:08;100544.22;;;11.20;60.62
61906;BME280;47863;55.766;37.672;2022-10-13T07:21:34;100547.03;;;11.19;60.10
61906;BME280;47863;55.766;37.672;2022-10-13T07:24:01;100546.91;;;11.10;60.89
61906;BME280;47863;55.766;37.672;2022-10-13T07:26:28;100538.22;;;10.99;61.76
61906;BME280;47863;55.766;37.672;2022-10-13T07:28:53;100541.47;;;10.93;61.32
61906;BME280;47863;55.766;37.672;2022-10-13T07:31:19;100533.56;;;10.91;61.63
61906;BME280;47863;55.766;37.672;2022-10-13T07:33:48;100552.88;;;11.04;62.73
61906;BME280;47863;55.766;37.672;2022-10-13T07:36:14;100550.13;;;11.24;62.44
61906;BME280;47863;55.766;37.672;2022-10-13T07:38:40;100560.56;;;11.55;61.35
61906;BME280;47863;55.766;37.672;2022-10-13T07:41:07;100546.03;;;11.85;60.74
61906;BME280;47863;55.766;37.672;2022-10-13T07:43:33;100537.25;;;12.10;58.80
61906;BME280;47863;55.766;37.672;2022-10-13T07:45:59;100548.28;;;12.43;58.40
61906;BME280;47863;55.766;37.672;2022-10-13T07:48:26;100560.09;;;12.68;57.02
61906;BME280;47863;55.766;37.672;2022-10-13T07:50:52;100553.31;;;12.82;58.67
61906;BME280;47863;55.766;37.672;2022-10-13T07:53:18;100563.59;;;13.13;56.61
61906;BME280;47863;55.766;37.672;2022-10-13T07:55:43;100552.50;;;13.85;54.97
61906;BME280;47863;55.766;37.672;2022-10-13T07:58:09;100558.00;;;14.51;53.02
61906;BME280;47863;55.766;37.672;2022-10-13T08:00:35;100565.97;;;14.85;51.39
61906;BME280;47863;55.766;37.672;2022-10-13T08:03:01;100564.09;;;14.85;51.43
61906;BME280;47863;55.766;37.672;2022-10-13T08:05:27;100563.41;;;15.00;50.59
61906;BME280;47863;55.766;37.672;2022-10-13T08:07:52;100555.97;;;16.05;48.89
61906;BME280;47863;55.766;37.672;2022-10-13T08:10:18;100567.91;;;17.18;46.07
61906;BME280;47863;55.766;37.672;2022-10-13T08:12:44;100572.53;;;17.69;44.28
61906;BME280;47863;55.766;37.672;2022-10-13T08:15:09;100567.31;;;17.82;45.05
61906;BME280;47863;55.766;37.672;2022-10-13T08:17:35;100563.97;;;17.95;43.10
61906;BME280;47863;55.766;37.672;2022-10-13T08:20:02;100573.88;;;17.88;42.40
61906;BME280;47863;55.766;37.672;2022-10-13T08:22:29;100570.31;;;17.43;44.33
61906;BME280;47863;55.766;37.672;2022-10-13T08:24:54;100581.84;;;16.92;45.44
61906;BME280;47863;55.766;37.672;2022-10-13T08:27:21;100585.41;;;16.46;46.13
61906;BME280;47863;55.766;37.672;2022-10-13T08:29:48;100580.63;;;16.02;49.68
61906;BME280;47863;55.766;37.672;2022-10-13T08:32:15;100584.72;;;15.51;47.42
61906;BME280;47863;55.766;37.672;2022-10-13T08:34:40;100576.06;;;14.99;48.79
61906;BME280;47863;55.766;37.672;2022-10-13T08:37:12;100585.66;;;14.61;50.75
61906;BME280;47863;55.766;37.672;2022-10-13T08:39:38;100580.03;;;14.21;53.57
61906;BME280;47863;55.766;37.672;2022-10-13T08:42:13;100568.25;;;14.06;52.73
61906;BME280;47863;55.766;37.672;2022-10-13T08:44:41;100578.66;;;14.01;52.81
61906;BME280;47863;55.766;37.672;2022-10-13T08:47:23;100571.84;;;15.05;52.65
61906;BME280;47863;55.766;37.672;2022-10-13T08:49:55;100570.66;;;16.95;46.18
61906;BME280;47863;55.766;37.672;2022-10-13T08:52:26;100578.78;;;18.79;43.42
61906;BME280;47863;55.766;37.672;2022-10-13T08:54:54;100580.16;;;19.94;40.57
61906;BME280;47863;55.766;37.672;2022-10-13T08:57:20;100569.94;;;20.03;39.24
61906;BME280;47863;55.766;37.672;2022-10-13T08:59:47;100575.59;;;19.67;39.13
61906;BME280;47863;55.766;37.672;2022-10-13T09:02:22;100564.56;;;18.98;41.26
61906;BME280;47863;55.766;37.672;2022-10-13T09:04:49;100567.34;;;18.19;41.96
61906;BME280;47863;55.766;37.672;2022-10-13T09:07:19;100577.88;;;17.62;43.12
61906;BME280;47863;55.766;37.672;2022-10-13T09:09:50;100573.41;;;17.10;43.57
61906;BME280;47863;55.766;37.672;2022-10-13T09:12:16;100580.00;;;16.70;46.08
61906;BME280;47863;55.766;37.672;2022-10-13T09:15:00;100574.47;;;16.63;46.08
61906;BME280;47863;55.766;37.672;2022-10-13T09:17:29;100581.84;;;16.69;46.35
61906;BME280;47863;55.766;37.672;2022-10-13T09:20:06;100583.78;;;16.83;45.88
61906;BME280;47863;55.766;37.672;2022-10-13T09:22:38;100585.09;;;16.88;46.41
61906;BME280;47863;55.766;37.672;2022-10-13T09:35:42;100577.09;;;16.25;46.09
61906;BME280;47863;55.766;37.672;2022-10-13T09:38:21;100581.75;;;16.39;46.28
61906;BME280;47863;55.766;37.672;2022-10-13T09:46:20;100573.63;;;16.39;45.72
61906;BME280;47863;55.766;37.672;2022-10-13T09:48:52;100579.19;;;16.15;45.93
61906;BME280;47863;55.766;37.672;2022-10-13T09:51:39;100565.13;;;15.96;46.60
61906;BME280;47863;55.766;37.672;2022-10-13T09:54:24;100572.50;;;16.02;47.62
61906;BME280;47863;55.766;37.672;2022-10-13T09:56:54;100557.53;;;16.69;46.00
61906;BME280;47863;55.766;37.672;2022-10-13T09:59:36;100561.34;;;18.88;44.11
61906;BME280;47863;55.766;37.672;2022-10-13T10:05:18;100568.91;;;23.11;34.69
61906;BME280;47863;55.766;37.672;2022-10-13T10:07:47;100562.91;;;22.96;32.54
61906;BME280;47863;55.766;37.672;2022-10-13T10:10:33;100569.25;;;22.40;36.56
61906;BME280;47863;55.766;37.672;2022-10-13T10:13:00;100573.59;;;21.50;33.85
61906;BME280;47863;55.766;37.672;2022-10-13T10:15:49;100565.06;;;20.73;36.82
61906;BME280;47863;55.766;37.672;2022-10-13T10:18:38;100574.88;;;19.73;36.96
61906;BME280;47863;55.766;37.672;2022-10-13T10:23:48;100565.16;;;18.51;40.97
61906;BME280;47863;55.766;37.672;2022-10-13T10:26:40;100551.56;;;19.64;39.40
61906;BME280;47863;55.766;37.672;2022-10-13T10:29:16;100570.44;;;21.40;35.92
61906;BME280;47863;55.766;37.672;2022-10-13T10:34:33;100572.06;;;23.08;35.28
61906;BME280;47863;55.766;37.672;2022-10-13T10:45:25;100559.31;;;20.21;36.19
61906;BME280;47863;55.766;37.672;2022-10-13T10:47:55;100559.53;;;19.65;36.76
61906;BME280;47863;55.766;37.672;2022-10-13T10:50:24;100571.19;;;19.17;37.70
61906;BME280;47863;55.766;37.672;2022-10-13T10:53:11;100575.22;;;19.00;39.09
61906;BME280;47863;55.766;37.672;2022-10-13T11:08:43;100576.06;;;20.32;34.01
61906;BME280;47863;55.766;37.672;2022-10-13T11:11:35;100584.69;;;20.35;35.71
61906;BME280;47863;55.766;37.672;2022-10-13T11:14:23;100580.94;;;20.36;35.97
61906;BME280;47863;55.766;37.672;2022-10-13T11:43:33;100573.69;;;24.69;31.42
61906;BME280;47863;55.766;37.672;2022-10-13T11:49:07;100571.00;;;25.40;26.75
61906;BME280;47863;55.766;37.672;2022-10-13T11:54:46;100562.16;;;25.90;28.13
61906;BME280;47863;55.766;37.672;2022-10-13T11:57:18;100554.41;;;25.87;25.47
61906;BME280;47863;55.766;37.672;2022-10-13T11:59:47;100560.75;;;25.87;24.92
61906;BME280;47863;55.766;37.672;2022-10-13T12:02:15;100560.28;;;25.90;24.84
61906;BME280;47863;55.766;37.672;2022-10-13T12:04:42;100566.25;;;25.87;24.83
61906;BME280;47863;55.766;37.672;2022-10-13T12:07:10;100563.06;;;25.67;24.90
61906;BME280;47863;55.766;37.672;2022-10-13T12:09:54;100555.41;;;25.69;26.65
61906;BME280;47863;55.766;37.672;2022-10-13T12:12:21;100551.19;;;25.49;25.56
61906;BME280;47863;55.766;37.672;2022-10-13T12:14:49;100551.81;;;25.40;25.21
61906;BME280;47863;55.766;37.672;2022-10-13T12:20:02;100551.03;;;24.62;25.73
61906;BME280;47863;55.766;37.672;2022-10-13T12:22:30;100544.81;;;24.54;26.30
61906;BME280;47863;55.766;37.672;2022-10-13T12:24:57;100542.72;;;24.57;25.63
61906;BME280;47863;55.766;37.672;2022-10-13T12:27:24;100543.84;;;24.49;25.62
61906;BME280;47863;55.766;37.672;2022-10-13T12:29:49;100543.94;;;24.42;26.88
61906;BME280;47863;55.766;37.672;2022-10-13T12:32:24;100554.94;;;24.54;26.47
61906;BME280;47863;55.766;37.672;2022-10-13T12:34:50;100547.53;;;24.43;26.41
61906;BME280;47863;55.766;37.672;2022-10-13T12:37:29;100548.59;;;24.42;27.13
61906;BME280;47863;55.766;37.672;2022-10-13T12:39:58;100546.28;;;23.60;27.36
61906;BME280;47863;55.766;37.672;2022-10-13T12:42:30;100556.31;;;22.78;27.28
61906;BME280;47863;55.766;37.672;2022-10-13T12:44:58;100557.69;;;21.47;28.36
61906;BME280;47863;55.766;37.672;2022-10-13T12:55:33;100552.75;;;16.71;36.28
61906;BME280;47863;55.766;37.672;2022-10-13T12:58:00;100557.03;;;15.96;38.69
61906;BME280;47863;55.766;37.672;2022-10-13T13:00:28;100557.41;;;15.37;39.25
61906;BME280;47863;55.766;37.672;2022-10-13T13:02:59;100554.31;;;14.84;41.37
61906;BME280;47863;55.766;37.672;2022-10-13T13:05:40;100542.13;;;14.15;40.70
61906;BME280;47863;55.766;37.672;2022-10-13T13:08:28;100555.50;;;13.74;41.13
61906;BME280;47863;55.766;37.672;2022-10-13T13:11:00;100551.88;;;13.22;42.96
61906;BME280;47863;55.766;37.672;2022-10-13T13:13:27;100564.00;;;13.00;45.34
61906;BME280;47863;55.766;37.672;2022-10-13T13:16:12;100561.91;;;12.86;43.31
61906;BME280;47863;55.766;37.672;2022-10-13T13:18:39;100568.06;;;13.04;46.08
61906;BME280;47863;55.766;37.672;2022-10-13T13:21:08;100562.75;;;13.13;44.94
61906;BME280;47863;55.766;37.672;2022-10-13T13:23:34;100569.34;;;13.18;45.69
61906;BME280;47863;55.766;37.672;2022-10-13T13:28:30;100567.00;;;12.97;45.22
61906;BME280;47863;55.766;37.672;2022-10-13T13:30:56;100570.69;;;12.70;45.36
61906;BME280;47863;55.766;37.672;2022-10-13T13:33:23;100572.25;;;12.37;46.58
61906;BME280;47863;55.766;37.672;2022-10-13T13:35:48;100556.31;;;11.89;47.79
61906;BME280;47863;55.766;37.672;2022-10-13T13:38:14;100578.72;;;11.70;48.57
61906;BME280;47863;55.766;37.672;2022-10-13T13:40:40;100573.19;;;11.44;49.27
61906;BME280;47863;55.766;37.672;2022-10-13T13:43:07;100579.91;;;11.21;50.08
61906;BME280;47863;55.766;37.672;2022-10-13T13:45:33;100569.13;;;10.93;50.21
61906;BME280;47863;55.766;37.672;2022-10-13T13:47:59;100573.66;;;10.73;51.54
61906;BME280;47863;55.766;37.672;2022-10-13T13:50:29;100571.69;;;10.56;52.75
61906;BME280;47863;55.766;37.672;2022-10-13T13:52:57;100568.31;;;10.34;51.44
61906;BME280;47863;55.766;37.672;2022-10-13T13:55:22;100573.78;;;10.23;53.36
61906;BME280;47863;55.766;37.672;2022-10-13T13:57:48;100588.41;;;10.19;53.92
61906;BME280;47863;55.766;37.672;2022-10-13T14:00:15;100582.63;;;10.04;54.70
61906;BME280;47863;55.766;37.672;2022-10-13T14:02:42;100598.00;;;10.02;54.34
61906;BME280;47863;55.766;37.672;2022-10-13T14:05:09;100573.59;;;9.85;55.36
61906;BME280;47863;55.766;37.672;2022-10-13T14:07:35;100577.81;;;9.88;55.59
61906;BME280;47863;55.766;37.672;2022-10-13T14:10:01;100585.56;;;9.91;55.68
61906;BME280;47863;55.766;37.672;2022-10-13T14:12:29;100589.78;;;9.84;54.93
61906;BME280;47863;55.766;37.672;2022-10-13T14:14:55;100570.88;;;9.66;55.05
61906;BME280;47863;55.766;37.672;2022-10-13T14:17:21;100586.03;;;9.65;54.77
61906;BME280;47863;55.766;37.672;2022-10-13T14:19:47;100601.97;;;9.67;54.34
61906;BME280;47863;55.766;37.672;2022-10-13T14:22:12;100592.66;;;9.61;55.93
61906;BME280;47863;55.766;37.672;2022-10-13T14:24:38;100604.38;;;9.70;54.71
61906;BME280;47863;55.766;37.672;2022-10-13T14:27:03;100609.88;;;9.68;56.02
61906;BME280;47863;55.766;37.672;2022-10-13T14:29:29;100607.16;;;9.59;55.95
61906;BME280;47863;55.766;37.672;2022-10-13T14:31:55;100597.78;;;9.43;58.00
61906;BME280;47863;55.766;37.672;2022-10-13T14:34:20;100598.03;;;9.30;56.98
61906;BME280;47863;55.766;37.672;2022-10-13T14:36:46;100600.53;;;9.22;58.29
61906;BME280;47863;55.766;37.672;2022-10-13T14:39:12;100610.50;;;9.20;57.15
61906;BME280;47863;55.766;37.672;2022-10-13T14:41:38;100602.97;;;9.14;57.99
61906;BME280;47863;55.766;37.672;2022-10-13T14:44:03;100604.09;;;9.11;58.25
61906;BME280;47863;55.766;37.672;2022-10-13T14:46:29;100589.97;;;9.00;58.11
61906;BME280;47863;55.766;37.672;2022-10-13T14:48:54;100599.69;;;9.01;59.19
61906;BME280;47863;55.766;37.672;2022-10-13T14:51:23;100600.66;;;9.00;58.69
61906;BME280;47863;55.766;37.672;2022-10-13T14:53:49;100604.81;;;8.92;57.89
61906;BME280;47863;55.766;37.672;2022-10-13T14:56:21;100624.13;;;8.96;58.60
61906;BME280;47863;55.766;37.672;2022-10-13T14:58:48;100628.16;;;8.90;57.92